Time;durP1;ratioP1;P1;durP2;ratioP2;P2;SDS_P1;SDS_P2;PMS_P1;PMS_P2;Temp;Humidity;BMP_temperature;BMP_pressure;BME280_temperature;BME280_humidity;BME280_pressure;Samples;Min_cycle;Max_cycle;Signal;HPM_P1;HPM_P2
2022/11/06 00:01:15;;;;;;;20.17;12.23;;;13.50;77.30;;;;;;4943508;28;20233;-72
2022/11/06 00:03:42;;;;;;;21.67;11.45;;;13.50;77.00;;;;;;4947691;28;20206;-72
2022/11/06 00:08:59;;;;;;;16.70;10.90;;;13.20;77.50;;;;;;4949466;28;20270;-72
2022/11/06 00:11:25;;;;;;;21.23;11.45;;;13.20;77.70;;;;;;4944384;28;20771;-72
2022/11/06 00:13:53;;;;;;;21.92;11.45;;;13.30;78.00;;;;;;4945150;28;20206;-71
2022/11/06 00:16:20;;;;;;;17.60;11.95;;;13.20;78.20;;;;;;4944442;28;20657;-71
2022/11/06 00:18:46;;;;;;;25.30;11.05;;;13.20;77.10;;;;;;4946387;28;20593;-72
2022/11/06 00:21:18;;;;;;;19.70;11.00;;;13.20;77.20;;;;;;4988027;28;20224;-72
2022/11/06 00:23:45;;;;;;;16.80;10.82;;;13.20;78.00;;;;;;5008953;28;20181;-72
2022/11/06 00:26:13;;;;;;;23.60;10.98;;;13.20;77.20;;;;;;5005539;28;20275;-71
2022/11/06 00:28:40;;;;;;;15.70;10.27;;;13.20;76.70;;;;;;5007152;28;20216;-72
2022/11/06 00:31:07;;;;;;;17.67;10.68;;;13.20;77.00;;;;;;4990876;28;20212;-71
2022/11/06 00:33:33;;;;;;;14.00;10.05;;;13.20;77.70;;;;;;5007249;28;20181;-73
2022/11/06 00:36:02;;;;;;;15.88;10.15;;;13.20;78.00;;;;;;5006147;28;20184;-73
2022/11/06 00:38:28;;;;;;;19.02;11.20;;;13.20;77.90;;;;;;5005899;28;20177;-73
2022/11/06 00:40:54;;;;;;;14.73;9.93;;;13.20;78.00;;;;;;5004258;28;20802;-73
2022/11/06 00:43:19;;;;;;;19.10;10.20;;;13.20;77.90;;;;;;5006653;28;20192;-70
2022/11/06 00:45:45;;;;;;;20.05;9.80;;;13.20;77.90;;;;;;5006439;28;20184;-72
2022/11/06 00:48:11;;;;;;;18.48;10.40;;;13.10;78.30;;;;;;5006988;28;20196;-73
2022/11/06 00:50:37;;;;;;;15.15;9.27;;;13.10;78.30;;;;;;5006226;28;20181;-73
2022/11/06 00:53:02;;;;;;;17.17;10.27;;;13.10;78.00;;;;;;5004793;28;20181;-72
2022/11/06 00:55:28;;;;;;;20.85;10.18;;;13.10;77.60;;;;;;5008699;28;20223;-72
2022/11/06 00:57:54;;;;;;;13.82;9.68;;;13.00;78.10;;;;;;4989693;28;20209;-72
2022/11/06 01:00:21;;;;;;;17.50;10.05;;;13.00;77.30;;;;;;5008862;28;20694;-72
2022/11/06 01:02:46;;;;;;;17.05;9.65;;;13.00;76.90;;;;;;5007781;28;20213;-72
2022/11/06 01:05:12;;;;;;;16.65;9.82;;;12.90;77.00;;;;;;5004486;28;20193;-72
2022/11/06 01:07:38;;;;;;;18.25;10.52;;;12.90;77.30;;;;;;5005652;28;20311;-72
2022/11/06 01:10:05;;;;;;;16.63;10.93;;;13.00;77.90;;;;;;5007116;28;20185;-72
2022/11/06 01:12:32;;;;;;;19.95;10.32;;;13.00;78.10;;;;;;5008801;28;20189;-72
2022/11/06 01:14:58;;;;;;;16.98;9.73;;;13.00;78.20;;;;;;5007454;28;20177;-72
2022/11/06 01:17:24;;;;;;;14.57;9.52;;;12.90;77.90;;;;;;5008421;28;20187;-72
2022/11/06 01:19:49;;;;;;;15.52;9.02;;;12.90;78.20;;;;;;5007865;28;20219;-72
2022/11/06 01:22:15;;;;;;;15.98;11.15;;;12.90;78.40;;;;;;5004429;28;20205;-71
2022/11/06 01:24:41;;;;;;;12.70;9.13;;;12.90;78.20;;;;;;5006130;28;20185;-72
2022/11/06 01:27:08;;;;;;;17.50;10.70;;;12.80;78.70;;;;;;5004800;28;20220;-71
2022/11/06 01:29:34;;;;;;;19.52;10.50;;;12.80;78.80;;;;;;5006584;28;20685;-73
2022/11/06 01:32:00;;;;;;;16.60;11.10;;;12.80;79.30;;;;;;5004566;28;20197;-71
2022/11/06 01:34:26;;;;;;;17.75;10.90;;;12.80;79.60;;;;;;5005315;28;20284;-71
2022/11/06 01:36:52;;;;;;;14.25;9.55;;;12.80;79.50;;;;;;5005672;28;20695;-71
2022/11/06 01:39:18;;;;;;;15.10;8.65;;;12.80;79.50;;;;;;5004879;28;20216;-72
2022/11/06 01:41:50;;;;;;;13.85;8.77;;;12.70;79.80;;;;;;5006069;28;20630;-72
2022/11/06 01:44:40;;;;;;;13.10;8.35;;;12.70;79.80;;;;;;5003299;28;20733;-72
2022/11/06 01:47:18;;;;;;;13.55;7.40;;;12.70;79.80;;;;;;5004249;28;20192;-73
2022/11/06 01:49:43;;;;;;;9.77;7.07;;;12.70;80.20;;;;;;5004312;28;20193;-73
2022/11/06 01:52:11;;;;;;;9.68;5.80;;;12.60;81.10;;;;;;5003287;28;20251;-71
2022/11/06 01:54:40;;;;;;;7.22;4.75;;;12.60;81.50;;;;;;5003274;28;20185;-72
2022/11/06 01:57:06;;;;;;;5.13;4.57;;;12.70;81.40;;;;;;5004437;28;20213;-73
2022/11/06 01:59:36;;;;;;;5.50;4.53;;;12.70;81.00;;;;;;5004619;28;20188;-72
2022/11/06 02:02:02;;;;;;;9.18;4.60;;;12.80;81.60;;;;;;5002936;28;20209;-72
2022/11/06 02:04:37;;;;;;;6.13;3.75;;;12.90;81.20;;;;;;5002633;28;20727;-72
2022/11/06 02:07:04;;;;;;;4.80;4.40;;;12.90;81.10;;;;;;5002253;28;20281;-72
2022/11/06 02:09:32;;;;;;;6.03;3.78;;;13.00;80.70;;;;;;5004226;28;20201;-72
2022/11/06 02:12:21;;;;;;;8.23;5.13;;;13.00;80.40;;;;;;5005279;28;20184;-71
2022/11/06 02:15:11;;;;;;;8.35;5.32;;;13.10;79.80;;;;;;5003618;28;20192;-71
2022/11/06 02:17:57;;;;;;;5.32;4.82;;;13.20;80.50;;;;;;5003938;28;20181;-72
2022/11/06 02:20:26;;;;;;;4.88;4.45;;;13.20;80.00;;;;;;5003132;28;20193;-72
2022/11/06 02:22:57;;;;;;;7.57;5.78;;;13.20;80.50;;;;;;4984206;28;20217;-73
2022/11/06 02:25:41;;;;;;;3.92;3.58;;;13.30;80.20;;;;;;5003072;28;20268;-73
2022/11/06 02:28:29;;;;;;;3.75;3.55;;;13.30;79.60;;;;;;4999475;28;20180;-72
2022/11/06 02:30:57;;;;;;;4.95;3.58;;;13.30;79.70;;;;;;5002689;28;20209;-72
2022/11/06 02:33:34;;;;;;;4.35;3.70;;;13.40;80.00;;;;;;5006902;28;20193;-72
2022/11/06 02:36:07;;;;;;;4.53;4.18;;;13.40;79.90;;;;;;5003104;28;20184;-71
2022/11/06 02:38:38;;;;;;;3.60;3.33;;;13.40;80.10;;;;;;5004666;28;20184;-72
2022/11/06 02:41:08;;;;;;;5.72;3.42;;;13.50;80.00;;;;;;5004047;28;20192;-72
2022/11/06 02:43:41;;;;;;;6.75;3.78;;;13.50;79.90;;;;;;4987113;28;20185;-72
2022/11/06 02:46:14;;;;;;;7.75;4.13;;;13.50;79.50;;;;;;5005966;28;20545;-71
2022/11/06 02:49:03;;;;;;;5.80;3.88;;;13.50;79.60;;;;;;5003385;28;20577;-71
2022/11/06 02:51:31;;;;;;;4.57;3.80;;;13.50;80.30;;;;;;5005469;28;20213;-72
2022/11/06 02:54:02;;;;;;;5.57;3.45;;;13.50;80.00;;;;;;4986999;28;20185;-71
2022/11/06 02:56:33;;;;;;;5.25;3.72;;;13.40;80.90;;;;;;5004051;28;20196;-72
2022/11/06 02:59:09;;;;;;;5.47;2.88;;;13.50;80.30;;;;;;5003472;28;20304;-71
2022/11/06 03:01:50;;;;;;;6.15;3.80;;;13.60;80.70;;;;;;5005371;28;20696;-72
2022/11/06 03:04:23;;;;;;;6.18;3.25;;;13.60;80.90;;;;;;5001127;28;20185;-72
2022/11/06 03:07:08;;;;;;;3.22;2.92;;;13.60;81.00;;;;;;5007549;28;20196;-73
2022/11/06 03:09:34;;;;;;;4.57;2.72;;;13.60;81.30;;;;;;5006878;28;20184;-72
2022/11/06 03:12:11;;;;;;;3.38;3.17;;;13.60;80.80;;;;;;5008435;28;20761;-72
2022/11/06 03:14:49;;;;;;;3.10;2.80;;;13.70;80.80;;;;;;5009263;28;20172;-72
2022/11/06 03:17:23;;;;;;;6.05;3.53;;;13.70;80.80;;;;;;5007621;28;20203;-72
2022/11/06 03:20:02;;;;;;;3.58;2.83;;;13.80;80.80;;;;;;5005251;28;20185;-72
2022/11/06 03:22:40;;;;;;;4.20;3.25;;;13.80;80.20;;;;;;5007158;28;20208;-72
2022/11/06 03:25:15;;;;;;;5.28;2.83;;;13.80;80.40;;;;;;5010108;28;20180;-72
2022/11/06 03:28:03;;;;;;;6.40;2.95;;;13.90;79.80;;;;;;5006484;28;20189;-72
2022/11/06 03:30:31;;;;;;;3.25;3.03;;;14.00;79.80;;;;;;5009241;28;20184;-72
2022/11/06 03:33:33;;;;;;;7.57;3.70;;;14.00;80.10;;;;;;5008291;28;20260;-72
2022/11/06 03:36:16;;;;;;;5.57;2.92;;;14.00;79.60;;;;;;4946962;28;20644;-72
2022/11/06 03:38:51;;;;;;;5.53;3.70;;;14.00;80.30;;;;;;4947602;28;20273;-72
2022/11/06 03:41:47;;;;;;;3.65;3.35;;;14.00;79.70;;;;;;4946501;29;20223;-72
2022/11/06 03:44:16;;;;;;;5.82;3.45;;;14.00;79.30;;;;;;4918638;29;20191;-73
2022/11/06 03:46:48;;;;;;;4.57;3.70;;;14.00;79.10;;;;;;4929226;29;20685;-72
2022/11/06 03:49:21;;;;;;;4.18;3.78;;;14.00;78.80;;;;;;4926819;29;20198;-73
2022/11/06 03:51:56;;;;;;;7.28;3.90;;;14.00;78.50;;;;;;4926417;29;20725;-72
2022/11/06 03:55:02;;;;;;;5.75;4.35;;;13.90;79.00;;;;;;4927918;29;20200;-72
2022/11/06 03:58:01;;;;;;;4.15;3.75;;;13.90;79.00;;;;;;4889136;29;20201;-72
2022/11/06 04:00:26;;;;;;;3.78;3.35;;;13.90;79.30;;;;;;4890324;29;20804;-72
2022/11/06 04:03:05;;;;;;;6.15;3.65;;;13.80;79.40;;;;;;4887719;29;20236;-72
2022/11/06 04:05:45;;;;;;;4.63;3.50;;;13.70;79.30;;;;;;4889036;29;20201;-72
2022/11/06 04:13:56;;;;;;;4.78;3.20;;;13.60;80.00;;;;;;4904625;29;20207;-72
2022/11/06 04:16:32;;;;;;;3.45;3.22;;;13.60;80.10;;;;;;4907905;29;20636;-72
2022/11/06 04:18:58;;;;;;;5.65;3.15;;;13.60;80.30;;;;;;4908347;29;20682;-72
2022/11/06 04:21:42;;;;;;;3.40;3.20;;;13.50;80.40;;;;;;4914183;29;20717;-72
2022/11/06 04:27:20;;;;;;;3.35;3.10;;;13.50;81.40;;;;;;4926624;29;20667;-72
2022/11/06 04:30:04;;;;;;;7.75;3.72;;;13.40;81.70;;;;;;4928196;29;20215;-72
2022/11/06 04:33:06;;;;;;;4.07;2.90;;;13.40;81.50;;;;;;4950122;28;20256;-72
2022/11/06 04:35:32;;;;;;;3.17;3.05;;;13.40;82.50;;;;;;5008779;28;20199;-74
2022/11/06 04:38:33;;;;;;;5.63;3.53;;;13.30;83.10;;;;;;5009115;28;20193;-72
2022/11/06 04:41:23;;;;;;;4.28;2.97;;;13.30;83.20;;;;;;5007865;28;20193;-72
2022/11/06 04:43:55;;;;;;;3.22;2.95;;;13.30;83.00;;;;;;5005582;28;20193;-72
2022/11/06 04:46:29;;;;;;;3.58;2.92;;;13.30;83.70;;;;;;5007380;28;20235;-73
2022/11/06 04:48:56;;;;;;;3.55;3.17;;;13.30;83.70;;;;;;5005683;28;20638;-70
2022/11/06 04:51:26;;;;;;;6.03;3.85;;;13.30;84.30;;;;;;5007045;28;20197;-73
2022/11/06 04:53:53;;;;;;;3.35;3.17;;;13.30;84.10;;;;;;5006202;28;20216;-71
2022/11/06 04:56:33;;;;;;;3.30;3.03;;;13.30;84.70;;;;;;5005478;28;20189;-72
2022/11/06 04:58:59;;;;;;;3.47;3.17;;;13.30;84.40;;;;;;5006923;28;20204;-72
2022/11/06 05:01:25;;;;;;;2.85;2.75;;;13.20;84.90;;;;;;5008064;28;20209;-72
2022/11/06 05:03:51;;;;;;;5.90;3.03;;;13.20;84.70;;;;;;5004387;28;20185;-71
2022/11/06 05:06:17;;;;;;;4.07;2.67;;;13.20;84.70;;;;;;5005007;28;20684;-73
2022/11/06 05:08:43;;;;;;;4.07;3.58;;;13.20;85.20;;;;;;5007016;28;20182;-71
2022/11/06 05:11:09;;;;;;;3.58;3.28;;;13.20;84.60;;;;;;5006256;28;20208;-72
2022/11/06 05:13:34;;;;;;;2.85;2.75;;;13.20;85.40;;;;;;5006023;28;20208;-72
2022/11/06 05:16:00;;;;;;;3.22;2.55;;;13.20;85.80;;;;;;5006436;28;20183;-71
2022/11/06 05:18:27;;;;;;;4.60;3.63;;;13.20;86.30;;;;;;5009547;28;20270;-73
2022/11/06 05:22:56;;;;;;;4.13;3.20;;;13.20;85.70;;;;;;5005673;28;20181;-73
2022/11/06 05:23:38;;;;;;;6.00;3.38;;;13.20;86.20;;;;;;5005813;28;20275;-71
2022/11/06 05:26:05;;;;;;;6.22;3.13;;;13.20;86.10;;;;;;5004945;28;20231;-72
2022/11/06 05:28:31;;;;;;;4.28;3.05;;;13.20;85.70;;;;;;5005553;28;20177;-73
2022/11/06 05:30:57;;;;;;;4.45;3.30;;;13.20;86.30;;;;;;5002383;28;20227;-73
2022/11/06 05:33:22;;;;;;;5.22;3.50;;;13.20;86.40;;;;;;5005097;28;20266;-71
2022/11/06 05:35:48;;;;;;;3.17;2.97;;;13.20;86.50;;;;;;5006442;28;20181;-71
2022/11/06 05:38:14;;;;;;;3.47;3.00;;;13.20;86.90;;;;;;5005809;28;20267;-71
2022/11/06 05:40:40;;;;;;;3.60;3.17;;;13.20;87.00;;;;;;5005827;28;20700;-73
2022/11/06 05:43:05;;;;;;;3.30;3.05;;;13.20;86.90;;;;;;5006226;28;20626;-72
2022/11/06 05:45:31;;;;;;;4.60;3.20;;;13.20;86.90;;;;;;5006942;28;20181;-72
2022/11/06 05:47:57;;;;;;;3.90;3.53;;;13.30;86.90;;;;;;5005635;28;20674;-72
2022/11/06 05:50:23;;;;;;;4.85;3.30;;;13.30;86.70;;;;;;5006695;28;20193;-72
2022/11/06 05:52:48;;;;;;;5.57;3.83;;;13.30;87.00;;;;;;5005637;28;20196;-71
2022/11/06 05:55:14;;;;;;;3.88;3.55;;;13.30;86.70;;;;;;5006122;28;20276;-73
2022/11/06 05:57:40;;;;;;;4.13;3.10;;;13.30;85.90;;;;;;5004536;28;20294;-72
2022/11/06 06:00:06;;;;;;;3.78;3.47;;;13.30;86.10;;;;;;5007045;28;20185;-72
2022/11/06 06:02:32;;;;;;;3.72;3.22;;;13.40;86.60;;;;;;5008346;28;20293;-72
2022/11/06 06:04:58;;;;;;;3.78;3.47;;;13.40;86.40;;;;;;5007244;28;20213;-73
2022/11/06 06:07:23;;;;;;;3.50;3.20;;;13.40;86.70;;;;;;5005288;28;20211;-72
2022/11/06 06:09:49;;;;;;;3.50;3.30;;;13.40;86.40;;;;;;5004505;28;20189;-73
2022/11/06 06:12:16;;;;;;;4.72;3.80;;;13.50;86.60;;;;;;5003898;28;20204;-73
2022/11/06 06:14:41;;;;;;;3.92;3.58;;;13.50;86.40;;;;;;5001637;28;20216;-70
2022/11/06 06:17:07;;;;;;;4.82;3.83;;;13.50;86.20;;;;;;5004280;28;20739;-72
2022/11/06 06:19:33;;;;;;;5.13;3.72;;;13.60;86.60;;;;;;5005814;28;20185;-72
2022/11/06 06:21:59;;;;;;;5.07;3.10;;;13.70;86.40;;;;;;5003472;28;20307;-72
2022/11/06 06:24:25;;;;;;;3.47;2.90;;;13.70;86.70;;;;;;5006977;28;20305;-71
2022/11/06 06:26:50;;;;;;;3.80;3.60;;;13.80;86.60;;;;;;5006418;28;20675;-71
2022/11/06 06:29:16;;;;;;;5.38;3.58;;;13.80;86.30;;;;;;5005857;28;20200;-72
2022/11/06 06:31:42;;;;;;;4.20;3.65;;;13.80;86.50;;;;;;5003794;28;20189;-72
2022/11/06 06:34:07;;;;;;;3.50;2.97;;;13.90;86.50;;;;;;5006872;28;20264;-72
2022/11/06 06:36:33;;;;;;;4.00;3.25;;;13.90;86.20;;;;;;5010576;28;20196;-71
2022/11/06 06:38:59;;;;;;;4.75;3.88;;;13.90;86.40;;;;;;5004752;28;20193;-72
2022/11/06 06:41:24;;;;;;;4.30;3.83;;;14.00;86.60;;;;;;5004514;28;20212;-72
2022/11/06 06:43:50;;;;;;;3.85;3.53;;;14.00;86.40;;;;;;5002930;28;20561;-72
2022/11/06 06:46:16;;;;;;;3.95;3.55;;;14.00;86.50;;;;;;5005492;28;20658;-72
2022/11/06 06:48:42;;;;;;;4.93;3.65;;;14.10;86.50;;;;;;5004827;28;20673;-72
2022/11/06 06:51:08;;;;;;;4.53;4.15;;;14.10;86.30;;;;;;5005724;28;20172;-72
2022/11/06 06:53:34;;;;;;;5.68;4.25;;;14.10;86.70;;;;;;5004893;28;20662;-72
2022/11/06 06:56:01;;;;;;;5.95;4.47;;;14.20;86.10;;;;;;4985173;28;20674;-73
2022/11/06 06:58:30;;;;;;;4.38;3.78;;;14.20;86.10;;;;;;5007794;28;20621;-72
2022/11/06 07:01:01;;;;;;;5.75;3.85;;;14.30;85.80;;;;;;5004348;28;20223;-72
2022/11/06 07:03:27;;;;;;;4.55;3.97;;;14.30;85.90;;;;;;5005729;28;20192;-72
2022/11/06 07:05:52;;;;;;;3.97;3.67;;;14.40;85.90;;;;;;4985121;28;20288;-72
2022/11/06 07:08:18;;;;;;;7.10;4.47;;;14.40;86.20;;;;;;5004922;28;20680;-71
2022/11/06 07:10:44;;;;;;;4.75;4.15;;;14.50;85.90;;;;;;5003216;28;20211;-76
2022/11/06 07:13:10;;;;;;;4.03;3.67;;;14.50;85.70;;;;;;4986298;28;20239;-74
2022/11/06 07:15:35;;;;;;;4.43;3.63;;;14.60;85.60;;;;;;5003625;28;20263;-74
2022/11/06 07:18:03;;;;;;;4.95;4.55;;;14.70;85.60;;;;;;5005310;28;20217;-73
2022/11/06 07:20:29;;;;;;;5.63;4.45;;;14.70;85.60;;;;;;5002820;28;20197;-72
2022/11/06 07:22:55;;;;;;;5.95;4.80;;;14.80;85.50;;;;;;5005468;28;20213;-73
2022/11/06 07:25:21;;;;;;;4.38;3.97;;;14.80;85.00;;;;;;5006000;28;20182;-73
2022/11/06 07:27:46;;;;;;;5.32;4.68;;;14.80;85.50;;;;;;5004465;28;20203;-73
2022/11/06 07:30:12;;;;;;;5.43;4.25;;;14.70;85.60;;;;;;5003942;28;20189;-72
2022/11/06 07:32:38;;;;;;;6.93;4.82;;;14.80;85.40;;;;;;5004430;28;20251;-72
2022/11/06 07:35:04;;;;;;;8.07;5.15;;;14.80;85.70;;;;;;5004859;28;20181;-72
2022/11/06 07:37:30;;;;;;;6.80;4.55;;;14.80;85.00;;;;;;5002538;28;20206;-73
2022/11/06 07:39:55;;;;;;;5.15;4.80;;;14.80;85.80;;;;;;5006714;28;20605;-74
2022/11/06 07:42:21;;;;;;;5.53;4.90;;;14.80;85.10;;;;;;5004217;28;20655;-73
2022/11/06 07:44:47;;;;;;;10.35;4.72;;;14.90;84.90;;;;;;5002382;28;20189;-73
2022/11/06 07:47:12;;;;;;;7.32;5.15;;;14.90;84.90;;;;;;5004224;28;20177;-73
2022/11/06 07:49:38;;;;;;;6.38;4.85;;;14.90;84.80;;;;;;5002975;28;20200;-74
2022/11/06 07:52:04;;;;;;;6.13;4.90;;;14.90;85.00;;;;;;5009901;28;20216;-73
2022/11/06 07:54:30;;;;;;;5.50;4.95;;;14.90;85.00;;;;;;5009761;28;20184;-74
2022/11/06 07:56:56;;;;;;;8.43;5.10;;;14.90;85.20;;;;;;5009144;28;20196;-73
2022/11/06 07:59:22;;;;;;;7.30;5.15;;;14.90;85.50;;;;;;5006196;28;20181;-73
2022/11/06 08:01:47;;;;;;;9.77;5.57;;;14.80;85.10;;;;;;5005461;28;20629;-74
2022/11/06 08:04:13;;;;;;;6.25;5.60;;;14.90;84.90;;;;;;5008608;28;20180;-74
2022/11/06 08:06:39;;;;;;;6.28;5.32;;;15.00;84.80;;;;;;5007765;28;20733;-73
2022/11/06 08:09:06;;;;;;;5.53;5.00;;;15.00;85.10;;;;;;5007130;28;20185;-73
2022/11/06 08:11:32;;;;;;;6.30;5.28;;;15.00;84.80;;;;;;5006169;28;21130;-73
2022/11/06 08:14:00;;;;;;;7.65;5.40;;;15.10;84.70;;;;;;5005814;28;20185;-73
2022/11/06 08:16:25;;;;;;;9.05;5.93;;;15.10;84.40;;;;;;5006230;28;20178;-73
2022/11/06 08:18:51;;;;;;;12.18;5.55;;;15.10;84.60;;;;;;5005960;28;20188;-73
2022/11/06 08:21:20;;;;;;;8.65;5.15;;;15.10;84.90;;;;;;5006873;28;20685;-71
2022/11/06 08:23:45;;;;;;;5.93;5.32;;;15.10;84.50;;;;;;5006675;28;20756;-73
2022/11/06 08:26:11;;;;;;;9.63;5.95;;;15.20;84.60;;;;;;5004318;28;20185;-74
2022/11/06 08:28:37;;;;;;;7.45;6.00;;;15.30;84.60;;;;;;5007915;28;20181;-73
2022/11/06 08:31:04;;;;;;;7.68;5.88;;;15.30;85.10;;;;;;5008058;28;20884;-73
2022/11/06 08:33:30;;;;;;;6.40;5.80;;;15.30;85.20;;;;;;5008451;28;20191;-74
2022/11/06 08:35:56;;;;;;;9.55;6.30;;;15.30;84.60;;;;;;4992204;28;21146;-74
2022/11/06 08:38:21;;;;;;;8.38;6.30;;;15.20;85.60;;;;;;5007428;28;20184;-77
2022/11/06 08:40:47;;;;;;;9.63;5.90;;;15.20;85.80;;;;;;5009960;28;20562;-74
2022/11/06 08:43:12;;;;;;;7.93;6.43;;;15.20;86.70;;;;;;5008034;28;20661;-74
2022/11/06 08:45:40;;;;;;;8.30;6.15;;;15.10;87.00;;;;;;5006562;28;20224;-74
2022/11/06 08:48:07;;;;;;;8.02;6.93;;;15.20;86.10;;;;;;5006223;28;21580;-73
2022/11/06 08:50:35;;;;;;;11.18;6.50;;;15.20;87.10;;;;;;5005285;28;20200;-72
2022/11/06 08:53:03;;;;;;;7.75;6.50;;;15.30;87.80;;;;;;5003601;28;20177;-72
2022/11/06 08:55:32;;;;;;;8.68;6.50;;;15.20;87.30;;;;;;5004001;28;20249;-71
2022/11/06 08:57:58;;;;;;;9.98;7.15;;;15.30;87.90;;;;;;5004117;28;20255;-71
2022/11/06 09:00:24;;;;;;;10.85;6.15;;;15.30;88.70;;;;;;5005244;28;20177;-71
2022/11/06 09:02:50;;;;;;;8.10;6.60;;;15.20;88.60;;;;;;5003354;28;20216;-72
2022/11/06 09:05:16;;;;;;;9.80;6.75;;;15.30;88.40;;;;;;5004596;28;20617;-71
2022/11/06 09:07:42;;;;;;;10.82;5.95;;;15.30;89.20;;;;;;5002899;28;20181;-71
2022/11/06 09:10:08;;;;;;;7.65;6.38;;;15.30;89.30;;;;;;5006831;28;20196;-73
2022/11/06 09:12:33;;;;;;;8.20;6.55;;;15.40;88.70;;;;;;5001277;28;20546;-71
2022/11/06 09:14:59;;;;;;;5.63;5.13;;;15.40;88.00;;;;;;5002876;28;20193;-70
2022/11/06 09:17:25;;;;;;;5.63;5.07;;;15.50;88.30;;;;;;5005476;28;20219;-71
2022/11/06 09:19:50;;;;;;;6.63;6.03;;;15.50;88.40;;;;;;5004094;28;20185;-71
2022/11/06 09:22:17;;;;;;;6.10;5.47;;;15.60;88.20;;;;;;5005437;28;20217;-70
2022/11/06 09:24:42;;;;;;;5.97;5.38;;;15.60;89.40;;;;;;5007403;28;20215;-70
2022/11/06 09:27:08;;;;;;;10.05;5.72;;;15.60;88.90;;;;;;5006062;28;20216;-71
2022/11/06 09:29:34;;;;;;;10.32;5.10;;;15.60;88.40;;;;;;5003910;28;20231;-70
2022/11/06 09:32:00;;;;;;;5.95;5.10;;;15.60;87.80;;;;;;5004353;28;20193;-72
2022/11/06 09:34:25;;;;;;;6.20;5.65;;;15.70;87.90;;;;;;5008051;28;21101;-72
2022/11/06 09:36:51;;;;;;;6.60;5.35;;;15.60;88.50;;;;;;5007914;28;20181;-71
2022/11/06 09:39:17;;;;;;;9.07;5.40;;;15.60;88.90;;;;;;5004157;28;20220;-70
2022/11/06 09:41:57;;;;;;;5.75;5.13;;;15.60;89.00;;;;;;5002155;28;20217;-71
2022/11/06 09:44:44;;;;;;;5.03;4.70;;;15.60;88.00;;;;;;5005286;28;20184;-71
2022/11/06 09:47:17;;;;;;;5.07;4.60;;;15.50;88.60;;;;;;5003560;28;20662;-71
2022/11/06 09:49:49;;;;;;;6.30;4.95;;;15.40;89.00;;;;;;5003270;28;20227;-71
2022/11/06 09:52:32;;;;;;;4.97;4.72;;;15.30;88.60;;;;;;5002828;28;21878;-72
2022/11/06 09:55:04;;;;;;;6.40;5.10;;;15.40;89.00;;;;;;5002653;28;20628;-71
2022/11/06 09:57:36;;;;;;;5.68;5.18;;;15.40;89.20;;;;;;5003494;28;20204;-71
2022/11/06 10:00:04;;;;;;;5.93;4.80;;;15.40;88.60;;;;;;5003103;28;20264;-72
2022/11/06 10:03:02;;;;;;;4.18;3.88;;;15.40;88.80;;;;;;4985339;28;20745;-72
2022/11/06 10:05:30;;;;;;;5.00;4.03;;;15.40;87.90;;;;;;4943384;28;20199;-71
2022/11/06 10:08:21;;;;;;;4.13;3.83;;;15.50;88.40;;;;;;4942838;28;20194;-70
2022/11/06 10:11:48;;;;;;;4.35;4.05;;;15.50;88.40;;;;;;4944779;28;20198;-72
2022/11/06 10:14:40;;;;;;;3.92;3.72;;;15.60;89.70;;;;;;4894012;29;20231;-70
2022/11/06 10:17:58;;;;;;;3.63;3.33;;;15.60;87.50;;;;;;4889637;29;20196;-72
2022/11/06 10:20:58;;;;;;;3.53;3.22;;;15.60;87.50;;;;;;4817475;29;20207;-73
2022/11/06 10:24:02;;;;;;;3.85;3.03;;;15.60;87.30;;;;;;4815296;29;20234;-72
2022/11/06 10:26:39;;;;;;;3.70;3.35;;;15.70;87.40;;;;;;4754155;30;20213;-72
2022/11/06 10:29:23;;;;;;;5.82;3.55;;;15.70;88.30;;;;;;4757984;30;20263;-72
2022/11/06 10:31:57;;;;;;;3.20;2.92;;;15.80;88.60;;;;;;4753815;30;20205;-74
2022/11/06 10:34:33;;;;;;;3.53;3.28;;;15.80;88.60;;;;;;4755341;30;21110;-72
2022/11/06 10:37:14;;;;;;;6.82;3.90;;;15.80;87.40;;;;;;4754800;30;20202;-71
2022/11/06 10:39:40;;;;;;;3.05;2.90;;;15.80;88.40;;;;;;4757257;30;20416;-71
2022/11/06 10:42:14;;;;;;;2.97;2.90;;;15.90;88.50;;;;;;4767736;29;20719;-72
2022/11/06 10:44:48;;;;;;;2.63;2.53;;;16.00;87.90;;;;;;4823379;29;20200;-73
2022/11/06 10:47:22;;;;;;;3.45;3.30;;;16.00;87.90;;;;;;4869221;29;20186;-73
2022/11/06 10:49:55;;;;;;;3.03;2.80;;;16.00;87.00;;;;;;4866100;29;20631;-72
2022/11/06 10:52:49;;;;;;;2.97;2.78;;;16.10;87.40;;;;;;4866556;29;20193;-71
2022/11/06 10:55:45;;;;;;;2.67;2.28;;;16.10;88.20;;;;;;4876504;28;20281;-74
2022/11/06 10:58:29;;;;;;;1.90;1.80;;;16.10;87.20;;;;;;4940330;28;20201;-72
2022/11/06 11:01:00;;;;;;;2.42;2.40;;;16.00;86.90;;;;;;4935338;28;20196;-73
2022/11/06 11:03:30;;;;;;;3.17;1.88;;;16.00;87.30;;;;;;4983360;28;20262;-73
2022/11/06 11:05:56;;;;;;;1.80;1.80;;;16.00;86.50;;;;;;5005347;28;20189;-71
2022/11/06 11:08:35;;;;;;;1.85;1.85;;;16.00;87.10;;;;;;4983643;28;20211;-73
2022/11/06 11:11:14;;;;;;;2.45;2.35;;;16.00;86.80;;;;;;5003726;28;20211;-73
2022/11/06 11:13:40;;;;;;;3.05;2.85;;;16.00;87.50;;;;;;4984166;28;20273;-74
2022/11/06 11:16:22;;;;;;;3.10;3.00;;;16.10;87.40;;;;;;5002341;28;20220;-73
2022/11/06 11:18:49;;;;;;;2.58;2.38;;;16.10;86.50;;;;;;5002784;28;20177;-72
2022/11/06 11:21:18;;;;;;;2.53;2.42;;;16.10;87.90;;;;;;5005345;28;20188;-73
2022/11/06 11:24:06;;;;;;;1.55;1.55;;;16.10;87.10;;;;;;4986421;28;20189;-73
2022/11/06 11:26:45;;;;;;;4.35;1.95;;;16.10;87.70;;;;;;5002540;28;20185;-74
2022/11/06 11:29:16;;;;;;;2.50;2.40;;;16.20;87.30;;;;;;4989289;28;20199;-73
2022/11/06 11:31:46;;;;;;;2.05;1.95;;;16.20;87.40;;;;;;5007939;28;20263;-73
2022/11/06 11:34:19;;;;;;;2.90;1.92;;;16.20;87.10;;;;;;5006806;28;20209;-73
2022/11/06 11:36:56;;;;;;;4.82;1.92;;;16.20;87.50;;;;;;5009097;28;20725;-72
2022/11/06 11:39:29;;;;;;;2.38;2.28;;;16.20;87.20;;;;;;5007638;28;20207;-72
2022/11/06 11:42:15;;;;;;;2.80;2.60;;;16.20;87.10;;;;;;5004731;28;20211;-73
2022/11/06 11:44:41;;;;;;;3.60;2.85;;;16.20;87.60;;;;;;5004395;28;20690;-72
2022/11/06 11:47:21;;;;;;;2.80;2.60;;;16.20;87.40;;;;;;5006451;28;20243;-72
2022/11/06 11:49:46;;;;;;;3.63;3.42;;;16.10;86.90;;;;;;5007231;28;20187;-73
2022/11/06 11:52:18;;;;;;;3.58;3.38;;;16.20;87.60;;;;;;5007749;28;20201;-73
2022/11/06 11:54:50;;;;;;;6.40;3.88;;;16.20;87.30;;;;;;5006457;28;20197;-73
2022/11/06 11:57:22;;;;;;;3.92;3.63;;;16.20;87.20;;;;;;5007237;28;20209;-73
2022/11/06 12:00:00;;;;;;;4.35;4.03;;;16.20;86.70;;;;;;5007437;28;20231;-73
2022/11/06 12:02:41;;;;;;;5.15;4.18;;;16.30;86.70;;;;;;5009054;28;20215;-74
2022/11/06 12:05:09;;;;;;;4.15;3.85;;;16.30;86.30;;;;;;4986535;28;20192;-74
2022/11/06 12:07:40;;;;;;;4.47;4.13;;;16.30;86.60;;;;;;5007524;28;20187;-74
2022/11/06 12:10:36;;;;;;;4.38;4.18;;;16.30;86.40;;;;;;4988093;28;20216;-73
2022/11/06 12:13:13;;;;;;;5.03;4.32;;;16.30;86.10;;;;;;5009907;28;20187;-74
2022/11/06 12:16:03;;;;;;;3.92;3.65;;;16.30;86.20;;;;;;4988947;28;20255;-74
2022/11/06 12:18:42;;;;;;;3.08;2.88;;;16.30;85.70;;;;;;4990373;28;20247;-75
2022/11/06 12:21:31;;;;;;;4.05;3.75;;;16.20;85.80;;;;;;4989646;28;20181;-74
2022/11/06 12:24:22;;;;;;;2.95;2.75;;;16.20;86.00;;;;;;4989757;28;20283;-74
2022/11/06 12:27:03;;;;;;;4.05;3.45;;;16.20;85.00;;;;;;4987770;28;20189;-73
2022/11/06 12:29:38;;;;;;;3.63;3.22;;;16.20;85.00;;;;;;5008888;28;20189;-73
2022/11/06 12:32:33;;;;;;;2.75;2.65;;;16.10;84.70;;;;;;5006597;28;20192;-74
2022/11/06 12:35:08;;;;;;;2.90;2.67;;;16.10;84.90;;;;;;5005023;28;20216;-72
2022/11/06 12:37:51;;;;;;;2.72;2.55;;;16.10;85.20;;;;;;5006239;28;20188;-73
2022/11/06 12:40:24;;;;;;;3.70;2.75;;;16.10;84.60;;;;;;5007187;28;20287;-74
2022/11/06 12:42:59;;;;;;;2.25;2.15;;;16.10;84.70;;;;;;5005989;28;20312;-74
2022/11/06 12:45:37;;;;;;;2.65;2.55;;;16.10;84.50;;;;;;4988996;28;20197;-71
2022/11/06 12:48:41;;;;;;;2.47;2.38;;;16.00;84.20;;;;;;5005125;28;20204;-73
2022/11/06 12:51:44;;;;;;;2.40;2.20;;;16.00;84.40;;;;;;4944133;28;20283;-73
2022/11/06 12:54:42;;;;;;;2.72;2.63;;;16.00;85.20;;;;;;4943318;28;20649;-73
2022/11/06 12:57:39;;;;;;;3.05;2.95;;;16.00;84.70;;;;;;4929133;29;20195;-72
2022/11/06 13:00:05;;;;;;;2.25;2.15;;;16.00;84.80;;;;;;4946653;28;20727;-73
2022/11/06 13:02:49;;;;;;;2.45;2.35;;;15.90;84.90;;;;;;4944670;28;20219;-73
2022/11/06 13:05:29;;;;;;;2.70;2.50;;;15.90;84.60;;;;;;4944723;28;20206;-73
2022/11/06 13:08:31;;;;;;;2.83;2.13;;;15.90;84.30;;;;;;4945635;28;20203;-72
2022/11/06 13:11:28;;;;;;;2.88;2.72;;;15.90;84.20;;;;;;4943760;28;20191;-72
2022/11/06 13:14:09;;;;;;;2.17;2.08;;;15.90;84.80;;;;;;4935667;29;20211;-74
2022/11/06 13:16:44;;;;;;;2.72;2.53;;;15.90;84.80;;;;;;4944111;28;20270;-74
2022/11/06 13:19:32;;;;;;;4.10;2.75;;;15.90;84.80;;;;;;4944360;28;20493;-72
2022/11/06 13:22:10;;;;;;;3.05;2.88;;;15.80;84.70;;;;;;4936338;28;20230;-72
2022/11/06 13:25:06;;;;;;;2.50;2.17;;;15.80;84.20;;;;;;4944219;28;20198;-72